sensor_id;sensor_type;location;lat;lon;timestamp;P1;durP1;ratioP1;P2;durP2;ratioP2
7179;SDS011;3631;42.152;24.756;2022-08-24T00:00:53;19.65;;;12.95;;
7179;SDS011;3631;42.152;24.756;2022-08-24T00:03:20;12.82;;;11.65;;
7179;SDS011;3631;42.152;24.756;2022-08-24T00:05:48;13.43;;;11.93;;
7179;SDS011;3631;42.152;24.756;2022-08-24T00:08:15;14.07;;;12.40;;
7179;SDS011;3631;42.152;24.756;2022-08-24T00:10:43;14.05;;;12.60;;
7179;SDS011;3631;42.152;24.756;2022-08-24T00:13:12;15.30;;;11.57;;
7179;SDS011;3631;42.152;24.756;2022-08-24T00:15:39;16.05;;;12.65;;
7179;SDS011;3631;42.152;24.756;2022-08-24T00:18:06;16.35;;;11.88;;
7179;SDS011;3631;42.152;24.756;2022-08-24T00:20:34;14.80;;;12.20;;
7179;SDS011;3631;42.152;24.756;2022-08-24T00:23:01;14.75;;;12.05;;
7179;SDS011;3631;42.152;24.756;2022-08-24T00:25:28;15.35;;;11.65;;
7179;SDS011;3631;42.152;24.756;2022-08-24T00:27:55;16.17;;;12.10;;
7179;SDS011;3631;42.152;24.756;2022-08-24T00:30:24;13.18;;;11.93;;
7179;SDS011;3631;42.152;24.756;2022-08-24T00:32:52;13.82;;;12.30;;
7179;SDS011;3631;42.152;24.756;2022-08-24T00:35:19;13.43;;;11.68;;
7179;SDS011;3631;42.152;24.756;2022-08-24T00:37:47;14.15;;;11.55;;
7179;SDS011;3631;42.152;24.756;2022-08-24T00:40:17;13.30;;;12.02;;
7179;SDS011;3631;42.152;24.756;2022-08-24T00:42:47;17.25;;;12.18;;
7179;SDS011;3631;42.152;24.756;2022-08-24T00:45:15;12.48;;;11.27;;
7179;SDS011;3631;42.152;24.756;2022-08-24T00:47:45;14.77;;;12.35;;
7179;SDS011;3631;42.152;24.756;2022-08-24T00:50:17;17.65;;;10.90;;
7179;SDS011;3631;42.152;24.756;2022-08-24T00:52:48;14.73;;;11.70;;
7179;SDS011;3631;42.152;24.756;2022-08-24T00:55:18;11.68;;;10.68;;
7179;SDS011;3631;42.152;24.756;2022-08-24T00:57:48;13.25;;;11.68;;
7179;SDS011;3631;42.152;24.756;2022-08-24T01:00:21;13.98;;;11.50;;
7179;SDS011;3631;42.152;24.756;2022-08-24T01:02:52;12.27;;;11.00;;
7179;SDS011;3631;42.152;24.756;2022-08-24T01:05:23;13.02;;;11.57;;
7179;SDS011;3631;42.152;24.756;2022-08-24T01:07:51;15.43;;;11.75;;
7179;SDS011;3631;42.152;24.756;2022-08-24T01:10:19;13.85;;;11.32;;
7179;SDS011;3631;42.152;24.756;2022-08-24T01:12:49;14.02;;;10.68;;
7179;SDS011;3631;42.152;24.756;2022-08-24T01:15:19;12.30;;;11.13;;
7179;SDS011;3631;42.152;24.756;2022-08-24T01:17:46;12.35;;;10.82;;
7179;SDS011;3631;42.152;24.756;2022-08-24T01:20:33;12.73;;;10.98;;
7179;SDS011;3631;42.152;24.756;2022-08-24T01:23:02;13.95;;;11.32;;
7179;SDS011;3631;42.152;24.756;2022-08-24T01:25:35;12.73;;;10.63;;
7179;SDS011;3631;42.152;24.756;2022-08-24T01:28:05;11.23;;;10.07;;
7179;SDS011;3631;42.152;24.756;2022-08-24T01:30:35;12.18;;;11.07;;
7179;SDS011;3631;42.152;24.756;2022-08-24T01:33:08;12.05;;;10.85;;
7179;SDS011;3631;42.152;24.756;2022-08-24T01:35:37;13.02;;;11.45;;
7179;SDS011;3631;42.152;24.756;2022-08-24T01:38:06;12.32;;;11.13;;
7179;SDS011;3631;42.152;24.756;2022-08-24T01:40:39;12.93;;;11.43;;
7179;SDS011;3631;42.152;24.756;2022-08-24T01:43:09;12.73;;;11.50;;
7179;SDS011;3631;42.152;24.756;2022-08-24T01:45:39;14.65;;;11.30;;
7179;SDS011;3631;42.152;24.756;2022-08-24T01:48:07;13.75;;;10.95;;
7179;SDS011;3631;42.152;24.756;2022-08-24T01:50:34;15.45;;;11.90;;
7179;SDS011;3631;42.152;24.756;2022-08-24T01:53:01;12.57;;;11.27;;
7179;SDS011;3631;42.152;24.756;2022-08-24T01:55:30;14.95;;;12.38;;
7179;SDS011;3631;42.152;24.756;2022-08-24T01:57:59;14.90;;;12.13;;
7179;SDS011;3631;42.152;24.756;2022-08-24T02:00:26;14.98;;;11.25;;
7179;SDS011;3631;42.152;24.756;2022-08-24T02:02:54;19.15;;;11.68;;
7179;SDS011;3631;42.152;24.756;2022-08-24T02:05:22;17.63;;;12.45;;
7179;SDS011;3631;42.152;24.756;2022-08-24T02:07:49;16.00;;;11.00;;
7179;SDS011;3631;42.152;24.756;2022-08-24T02:10:16;13.30;;;11.20;;
7179;SDS011;3631;42.152;24.756;2022-08-24T02:12:45;16.67;;;11.27;;
7179;SDS011;3631;42.152;24.756;2022-08-24T02:15:23;14.15;;;12.30;;
7179;SDS011;3631;42.152;24.756;2022-08-24T02:17:51;16.50;;;11.68;;
7179;SDS011;3631;42.152;24.756;2022-08-24T02:20:19;13.13;;;11.75;;
7179;SDS011;3631;42.152;24.756;2022-08-24T02:22:47;13.82;;;12.43;;
7179;SDS011;3631;42.152;24.756;2022-08-24T02:25:14;12.93;;;11.73;;
7179;SDS011;3631;42.152;24.756;2022-08-24T02:27:42;12.73;;;11.43;;
7179;SDS011;3631;42.152;24.756;2022-08-24T02:30:09;13.43;;;11.82;;
7179;SDS011;3631;42.152;24.756;2022-08-24T02:32:38;16.02;;;12.63;;
7179;SDS011;3631;42.152;24.756;2022-08-24T02:35:06;13.38;;;11.70;;
7179;SDS011;3631;42.152;24.756;2022-08-24T02:37:33;16.23;;;12.60;;
7179;SDS011;3631;42.152;24.756;2022-08-24T02:40:01;13.52;;;12.05;;
7179;SDS011;3631;42.152;24.756;2022-08-24T02:42:29;15.80;;;12.68;;
7179;SDS011;3631;42.152;24.756;2022-08-24T02:44:56;13.27;;;11.98;;
7179;SDS011;3631;42.152;24.756;2022-08-24T02:47:22;15.23;;;12.70;;
7179;SDS011;3631;42.152;24.756;2022-08-24T02:49:51;18.90;;;12.15;;
7179;SDS011;3631;42.152;24.756;2022-08-24T02:52:18;13.85;;;12.20;;
7179;SDS011;3631;42.152;24.756;2022-08-24T02:54:45;13.88;;;12.60;;
7179;SDS011;3631;42.152;24.756;2022-08-24T02:57:12;13.90;;;12.32;;
7179;SDS011;3631;42.152;24.756;2022-08-24T02:59:39;15.35;;;12.05;;
7179;SDS011;3631;42.152;24.756;2022-08-24T03:02:05;13.13;;;11.82;;
7179;SDS011;3631;42.152;24.756;2022-08-24T03:04:32;15.00;;;12.13;;
7179;SDS011;3631;42.152;24.756;2022-08-24T03:07:01;13.45;;;12.05;;
7179;SDS011;3631;42.152;24.756;2022-08-24T03:09:28;13.73;;;11.82;;
7179;SDS011;3631;42.152;24.756;2022-08-24T03:11:55;16.63;;;12.93;;
7179;SDS011;3631;42.152;24.756;2022-08-24T03:14:22;14.82;;;12.43;;
7179;SDS011;3631;42.152;24.756;2022-08-24T03:16:49;16.70;;;13.02;;
7179;SDS011;3631;42.152;24.756;2022-08-24T03:19:16;15.43;;;12.10;;
7179;SDS011;3631;42.152;24.756;2022-08-24T03:21:43;18.48;;;13.30;;
7179;SDS011;3631;42.152;24.756;2022-08-24T03:24:11;14.82;;;12.73;;
7179;SDS011;3631;42.152;24.756;2022-08-24T03:26:39;18.92;;;13.63;;
7179;SDS011;3631;42.152;24.756;2022-08-24T03:29:06;15.50;;;13.73;;
7179;SDS011;3631;42.152;24.756;2022-08-24T03:31:33;16.05;;;13.50;;
7179;SDS011;3631;42.152;24.756;2022-08-24T03:34:00;20.80;;;14.20;;
7179;SDS011;3631;42.152;24.756;2022-08-24T03:36:27;19.05;;;14.07;;
7179;SDS011;3631;42.152;24.756;2022-08-24T03:38:54;17.05;;;13.60;;
7179;SDS011;3631;42.152;24.756;2022-08-24T03:41:22;18.55;;;14.10;;
7179;SDS011;3631;42.152;24.756;2022-08-24T03:43:49;19.17;;;14.48;;
7179;SDS011;3631;42.152;24.756;2022-08-24T03:46:20;16.92;;;15.23;;
7179;SDS011;3631;42.152;24.756;2022-08-24T03:48:53;22.38;;;15.93;;
7179;SDS011;3631;42.152;24.756;2022-08-24T03:51:22;17.73;;;14.70;;
7179;SDS011;3631;42.152;24.756;2022-08-24T03:53:51;19.23;;;14.98;;
7179;SDS011;3631;42.152;24.756;2022-08-24T03:56:19;18.88;;;14.65;;
7179;SDS011;3631;42.152;24.756;2022-08-24T03:58:47;18.52;;;15.00;;
7179;SDS011;3631;42.152;24.756;2022-08-24T04:01:14;19.95;;;14.68;;
7179;SDS011;3631;42.152;24.756;2022-08-24T04:03:42;20.73;;;14.02;;
7179;SDS011;3631;42.152;24.756;2022-08-24T04:06:10;17.63;;;13.75;;
7179;SDS011;3631;42.152;24.756;2022-08-24T04:08:40;17.38;;;13.93;;
7179;SDS011;3631;42.152;24.756;2022-08-24T04:11:09;19.52;;;13.77;;
7179;SDS011;3631;42.152;24.756;2022-08-24T04:13:37;17.13;;;13.23;;
7179;SDS011;3631;42.152;24.756;2022-08-24T04:16:06;16.92;;;13.90;;
7179;SDS011;3631;42.152;24.756;2022-08-24T04:18:34;22.15;;;13.38;;
7179;SDS011;3631;42.152;24.756;2022-08-24T04:21:02;15.65;;;13.55;;
7179;SDS011;3631;42.152;24.756;2022-08-24T04:23:30;18.38;;;13.52;;
7179;SDS011;3631;42.152;24.756;2022-08-24T04:26:00;16.08;;;13.23;;
7179;SDS011;3631;42.152;24.756;2022-08-24T04:28:29;19.67;;;13.98;;
7179;SDS011;3631;42.152;24.756;2022-08-24T04:30:57;22.90;;;13.73;;
7179;SDS011;3631;42.152;24.756;2022-08-24T04:33:26;14.02;;;12.10;;
7179;SDS011;3631;42.152;24.756;2022-08-24T04:35:53;15.60;;;12.23;;
7179;SDS011;3631;42.152;24.756;2022-08-24T04:38:20;14.25;;;12.07;;
7179;SDS011;3631;42.152;24.756;2022-08-24T04:40:47;15.25;;;12.55;;
7179;SDS011;3631;42.152;24.756;2022-08-24T04:43:14;16.63;;;11.20;;
7179;SDS011;3631;42.152;24.756;2022-08-24T04:45:43;16.25;;;12.05;;
7179;SDS011;3631;42.152;24.756;2022-08-24T04:48:12;15.90;;;12.90;;
7179;SDS011;3631;42.152;24.756;2022-08-24T04:50:41;17.55;;;12.52;;
7179;SDS011;3631;42.152;24.756;2022-08-24T04:53:09;19.08;;;13.30;;
7179;SDS011;3631;42.152;24.756;2022-08-24T04:55:42;21.75;;;13.07;;
7179;SDS011;3631;42.152;24.756;2022-08-24T04:58:10;19.75;;;13.80;;
7179;SDS011;3631;42.152;24.756;2022-08-24T05:00:37;17.55;;;14.45;;
7179;SDS011;3631;42.152;24.756;2022-08-24T05:03:04;17.98;;;13.20;;
7179;SDS011;3631;42.152;24.756;2022-08-24T05:05:31;16.58;;;13.20;;
7179;SDS011;3631;42.152;24.756;2022-08-24T05:08:01;16.85;;;12.95;;
7179;SDS011;3631;42.152;24.756;2022-08-24T05:10:28;14.18;;;12.77;;
7179;SDS011;3631;42.152;24.756;2022-08-24T05:12:55;14.15;;;12.73;;
7179;SDS011;3631;42.152;24.756;2022-08-24T05:15:22;15.23;;;13.10;;
7179;SDS011;3631;42.152;24.756;2022-08-24T05:17:48;14.50;;;12.82;;
7179;SDS011;3631;42.152;24.756;2022-08-24T05:20:15;17.08;;;13.20;;
7179;SDS011;3631;42.152;24.756;2022-08-24T05:22:43;14.90;;;13.40;;
7179;SDS011;3631;42.152;24.756;2022-08-24T05:25:11;19.55;;;14.63;;
7179;SDS011;3631;42.152;24.756;2022-08-24T05:27:38;28.63;;;16.63;;
7179;SDS011;3631;42.152;24.756;2022-08-24T05:30:06;21.23;;;15.65;;
7179;SDS011;3631;42.152;24.756;2022-08-24T05:32:33;17.45;;;14.65;;
7179;SDS011;3631;42.152;24.756;2022-08-24T05:35:00;17.00;;;14.25;;
7179;SDS011;3631;42.152;24.756;2022-08-24T05:37:29;20.80;;;17.25;;
7179;SDS011;3631;42.152;24.756;2022-08-24T05:39:56;19.80;;;14.75;;
7179;SDS011;3631;42.152;24.756;2022-08-24T05:42:24;21.00;;;15.85;;
7179;SDS011;3631;42.152;24.756;2022-08-24T05:44:51;16.00;;;14.30;;
7179;SDS011;3631;42.152;24.756;2022-08-24T05:47:18;17.63;;;14.35;;
7179;SDS011;3631;42.152;24.756;2022-08-24T05:49:45;20.58;;;13.73;;
7179;SDS011;3631;42.152;24.756;2022-08-24T05:52:12;18.45;;;16.20;;
7179;SDS011;3631;42.152;24.756;2022-08-24T05:54:39;19.85;;;14.90;;
7179;SDS011;3631;42.152;24.756;2022-08-24T05:57:06;17.50;;;13.88;;
7179;SDS011;3631;42.152;24.756;2022-08-24T05:59:34;23.40;;;13.88;;
7179;SDS011;3631;42.152;24.756;2022-08-24T06:02:02;18.08;;;13.52;;
7179;SDS011;3631;42.152;24.756;2022-08-24T06:04:29;24.75;;;14.57;;
7179;SDS011;3631;42.152;24.756;2022-08-24T06:06:57;25.17;;;14.30;;
7179;SDS011;3631;42.152;24.756;2022-08-24T06:09:23;15.73;;;13.98;;
7179;SDS011;3631;42.152;24.756;2022-08-24T06:11:50;25.13;;;16.20;;
7179;SDS011;3631;42.152;24.756;2022-08-24T06:14:17;20.38;;;14.60;;
7179;SDS011;3631;42.152;24.756;2022-08-24T06:16:46;25.13;;;19.33;;
7179;SDS011;3631;42.152;24.756;2022-08-24T06:19:14;24.10;;;13.82;;
7179;SDS011;3631;42.152;24.756;2022-08-24T06:21:43;21.27;;;14.07;;
7179;SDS011;3631;42.152;24.756;2022-08-24T06:24:11;27.25;;;22.60;;
7179;SDS011;3631;42.152;24.756;2022-08-24T06:26:40;27.83;;;18.30;;
7179;SDS011;3631;42.152;24.756;2022-08-24T06:29:24;19.05;;;13.95;;
7179;SDS011;3631;42.152;24.756;2022-08-24T06:31:53;20.55;;;14.82;;
7179;SDS011;3631;42.152;24.756;2022-08-24T06:34:21;21.45;;;15.25;;
7179;SDS011;3631;42.152;24.756;2022-08-24T06:36:50;19.67;;;14.40;;
7179;SDS011;3631;42.152;24.756;2022-08-24T06:39:17;24.48;;;14.70;;
7179;SDS011;3631;42.152;24.756;2022-08-24T06:41:44;18.17;;;14.43;;
7179;SDS011;3631;42.152;24.756;2022-08-24T06:44:10;21.75;;;13.18;;
7179;SDS011;3631;42.152;24.756;2022-08-24T06:46:37;14.60;;;12.32;;
7179;SDS011;3631;42.152;24.756;2022-08-24T06:49:06;16.48;;;13.40;;
7179;SDS011;3631;42.152;24.756;2022-08-24T06:51:33;20.27;;;13.88;;
7179;SDS011;3631;42.152;24.756;2022-08-24T06:54:00;15.20;;;12.20;;
7179;SDS011;3631;42.152;24.756;2022-08-24T06:56:27;22.73;;;12.13;;
7179;SDS011;3631;42.152;24.756;2022-08-24T06:58:54;14.85;;;12.55;;
7179;SDS011;3631;42.152;24.756;2022-08-24T07:01:22;13.35;;;12.05;;
7179;SDS011;3631;42.152;24.756;2022-08-24T07:03:50;17.58;;;12.55;;
7179;SDS011;3631;42.152;24.756;2022-08-24T07:06:19;18.17;;;11.88;;
7179;SDS011;3631;42.152;24.756;2022-08-24T07:08:46;17.00;;;11.70;;
7179;SDS011;3631;42.152;24.756;2022-08-24T07:11:13;12.98;;;11.52;;
7179;SDS011;3631;42.152;24.756;2022-08-24T07:13:42;13.27;;;11.18;;
7179;SDS011;3631;42.152;24.756;2022-08-24T07:16:11;12.45;;;11.15;;
7179;SDS011;3631;42.152;24.756;2022-08-24T07:18:38;12.73;;;11.30;;
7179;SDS011;3631;42.152;24.756;2022-08-24T07:21:05;12.40;;;11.15;;
7179;SDS011;3631;42.152;24.756;2022-08-24T07:23:33;11.65;;;10.70;;
7179;SDS011;3631;42.152;24.756;2022-08-24T07:26:04;12.98;;;11.20;;
7179;SDS011;3631;42.152;24.756;2022-08-24T07:28:34;17.13;;;11.77;;
7179;SDS011;3631;42.152;24.756;2022-08-24T07:31:02;13.50;;;12.27;;
7179;SDS011;3631;42.152;24.756;2022-08-24T07:33:29;15.40;;;13.52;;
7179;SDS011;3631;42.152;24.756;2022-08-24T07:35:56;15.30;;;10.93;;
7179;SDS011;3631;42.152;24.756;2022-08-24T07:38:23;13.48;;;10.63;;
7179;SDS011;3631;42.152;24.756;2022-08-24T07:40:51;13.13;;;10.38;;
7179;SDS011;3631;42.152;24.756;2022-08-24T07:43:18;16.95;;;11.65;;
7179;SDS011;3631;42.152;24.756;2022-08-24T07:45:46;15.95;;;11.98;;
7179;SDS011;3631;42.152;24.756;2022-08-24T07:48:13;13.20;;;10.93;;
7179;SDS011;3631;42.152;24.756;2022-08-24T07:50:40;12.00;;;10.77;;
7179;SDS011;3631;42.152;24.756;2022-08-24T07:53:07;11.07;;;9.35;;
7179;SDS011;3631;42.152;24.756;2022-08-24T07:55:34;9.70;;;8.90;;
7179;SDS011;3631;42.152;24.756;2022-08-24T07:58:02;11.40;;;9.77;;
7179;SDS011;3631;42.152;24.756;2022-08-24T08:00:29;13.48;;;9.85;;
7179;SDS011;3631;42.152;24.756;2022-08-24T08:02:56;10.75;;;9.15;;
7179;SDS011;3631;42.152;24.756;2022-08-24T08:05:23;18.10;;;9.65;;
7179;SDS011;3631;42.152;24.756;2022-08-24T08:07:51;12.50;;;8.88;;
7179;SDS011;3631;42.152;24.756;2022-08-24T08:10:18;15.98;;;8.82;;
7179;SDS011;3631;42.152;24.756;2022-08-24T08:12:45;9.85;;;9.00;;
7179;SDS011;3631;42.152;24.756;2022-08-24T08:15:14;13.10;;;8.95;;
7179;SDS011;3631;42.152;24.756;2022-08-24T08:17:41;10.50;;;8.95;;
7179;SDS011;3631;42.152;24.756;2022-08-24T08:20:08;12.43;;;9.00;;
7179;SDS011;3631;42.152;24.756;2022-08-24T08:22:35;9.95;;;9.07;;
7179;SDS011;3631;42.152;24.756;2022-08-24T08:25:20;9.52;;;8.77;;
7179;SDS011;3631;42.152;24.756;2022-08-24T08:27:47;9.25;;;8.45;;
7179;SDS011;3631;42.152;24.756;2022-08-24T08:30:16;10.68;;;9.77;;
7179;SDS011;3631;42.152;24.756;2022-08-24T08:32:43;10.07;;;9.10;;
7179;SDS011;3631;42.152;24.756;2022-08-24T08:35:10;10.50;;;9.63;;
7179;SDS011;3631;42.152;24.756;2022-08-24T08:37:37;11.25;;;9.57;;
7179;SDS011;3631;42.152;24.756;2022-08-24T08:40:06;10.27;;;9.20;;
7179;SDS011;3631;42.152;24.756;2022-08-24T08:45:32;11.73;;;9.63;;
7179;SDS011;3631;42.152;24.756;2022-08-24T08:51:31;11.13;;;9.73;;
7179;SDS011;3631;42.152;24.756;2022-08-24T08:56:54;12.40;;;9.63;;
7179;SDS011;3631;42.152;24.756;2022-08-24T08:59:59;10.55;;;9.52;;
7179;SDS011;3631;42.152;24.756;2022-08-24T09:02:54;13.85;;;9.35;;
7179;SDS011;3631;42.152;24.756;2022-08-24T09:05:42;11.73;;;9.45;;
7179;SDS011;3631;42.152;24.756;2022-08-24T09:08:23;13.10;;;9.63;;
7179;SDS011;3631;42.152;24.756;2022-08-24T09:11:00;9.60;;;8.45;;
7179;SDS011;3631;42.152;24.756;2022-08-24T09:13:51;10.05;;;9.20;;
7179;SDS011;3631;42.152;24.756;2022-08-24T09:19:27;11.60;;;8.57;;
7179;SDS011;3631;42.152;24.756;2022-08-24T09:22:14;8.80;;;8.18;;
7179;SDS011;3631;42.152;24.756;2022-08-24T09:24:46;8.80;;;8.20;;
7179;SDS011;3631;42.152;24.756;2022-08-24T09:27:33;11.05;;;8.23;;
7179;SDS011;3631;42.152;24.756;2022-08-24T09:30:20;8.68;;;7.97;;
7179;SDS011;3631;42.152;24.756;2022-08-24T09:32:57;9.15;;;7.20;;
7179;SDS011;3631;42.152;24.756;2022-08-24T09:35:34;8.02;;;7.43;;
7179;SDS011;3631;42.152;24.756;2022-08-24T09:38:21;8.55;;;7.60;;
7179;SDS011;3631;42.152;24.756;2022-08-24T09:40:56;9.90;;;7.68;;
7179;SDS011;3631;42.152;24.756;2022-08-24T09:43:53;8.60;;;7.78;;
7179;SDS011;3631;42.152;24.756;2022-08-24T09:49:58;8.45;;;7.57;;
7179;SDS011;3631;42.152;24.756;2022-08-24T09:58:45;7.53;;;6.82;;
7179;SDS011;3631;42.152;24.756;2022-08-24T10:01:25;8.00;;;7.05;;
7179;SDS011;3631;42.152;24.756;2022-08-24T10:06:54;7.97;;;7.15;;
7179;SDS011;3631;42.152;24.756;2022-08-24T10:12:39;12.80;;;6.10;;
7179;SDS011;3631;42.152;24.756;2022-08-24T10:15:16;12.27;;;6.90;;
7179;SDS011;3631;42.152;24.756;2022-08-24T10:17:58;7.47;;;6.60;;
7179;SDS011;3631;42.152;24.756;2022-08-24T10:23:40;5.85;;;5.15;;
7179;SDS011;3631;42.152;24.756;2022-08-24T10:29:45;13.45;;;6.18;;
7179;SDS011;3631;42.152;24.756;2022-08-24T10:32:33;8.57;;;5.88;;
7179;SDS011;3631;42.152;24.756;2022-08-24T10:35:12;10.23;;;6.43;;
7179;SDS011;3631;42.152;24.756;2022-08-24T10:37:46;8.88;;;5.90;;
7179;SDS011;3631;42.152;24.756;2022-08-24T10:40:48;7.68;;;6.07;;
7179;SDS011;3631;42.152;24.756;2022-08-24T10:46:38;15.23;;;12.75;;
7179;SDS011;3631;42.152;24.756;2022-08-24T10:49:25;7.35;;;6.47;;
7179;SDS011;3631;42.152;24.756;2022-08-24T10:55:12;12.68;;;6.22;;
7179;SDS011;3631;42.152;24.756;2022-08-24T10:57:44;7.97;;;7.15;;
7179;SDS011;3631;42.152;24.756;2022-08-24T11:00:24;7.13;;;5.28;;
7179;SDS011;3631;42.152;24.756;2022-08-24T11:03:04;11.23;;;5.70;;
7179;SDS011;3631;42.152;24.756;2022-08-24T11:05:35;12.02;;;5.97;;
7179;SDS011;3631;42.152;24.756;2022-08-24T11:08:06;11.40;;;7.50;;
7179;SDS011;3631;42.152;24.756;2022-08-24T11:10:35;13.23;;;6.40;;
7179;SDS011;3631;42.152;24.756;2022-08-24T11:13:18;10.35;;;6.93;;
7179;SDS011;3631;42.152;24.756;2022-08-24T11:15:48;10.02;;;5.55;;
7179;SDS011;3631;42.152;24.756;2022-08-24T11:18:18;10.15;;;5.78;;
7179;SDS011;3631;42.152;24.756;2022-08-24T11:20:47;12.88;;;5.70;;
7179;SDS011;3631;42.152;24.756;2022-08-24T11:23:16;21.33;;;18.40;;
7179;SDS011;3631;42.152;24.756;2022-08-24T11:25:51;8.75;;;7.15;;
7179;SDS011;3631;42.152;24.756;2022-08-24T11:28:24;8.27;;;6.03;;
7179;SDS011;3631;42.152;24.756;2022-08-24T11:30:56;9.57;;;5.85;;
7179;SDS011;3631;42.152;24.756;2022-08-24T11:33:27;10.93;;;6.78;;
7179;SDS011;3631;42.152;24.756;2022-08-24T11:35:56;10.80;;;6.70;;
7179;SDS011;3631;42.152;24.756;2022-08-24T11:38:25;12.70;;;6.20;;
7179;SDS011;3631;42.152;24.756;2022-08-24T11:40:56;12.00;;;8.13;;
7179;SDS011;3631;42.152;24.756;2022-08-24T11:46:25;15.52;;;6.85;;
7179;SDS011;3631;42.152;24.756;2022-08-24T11:49:02;15.85;;;6.32;;
7179;SDS011;3631;42.152;24.756;2022-08-24T11:51:35;10.25;;;6.10;;
7179;SDS011;3631;42.152;24.756;2022-08-24T11:54:11;12.35;;;6.60;;
7179;SDS011;3631;42.152;24.756;2022-08-24T11:56:50;18.13;;;6.35;;
7179;SDS011;3631;42.152;24.756;2022-08-24T11:59:32;9.10;;;5.95;;
7179;SDS011;3631;42.152;24.756;2022-08-24T12:02:09;18.00;;;6.30;;
7179;SDS011;3631;42.152;24.756;2022-08-24T12:04:45;9.68;;;6.53;;
7179;SDS011;3631;42.152;24.756;2022-08-24T12:07:24;15.80;;;5.43;;
7179;SDS011;3631;42.152;24.756;2022-08-24T12:10:11;15.75;;;6.38;;
7179;SDS011;3631;42.152;24.756;2022-08-24T12:12:45;12.57;;;6.32;;
7179;SDS011;3631;42.152;24.756;2022-08-24T12:15:19;19.95;;;6.78;;
7179;SDS011;3631;42.152;24.756;2022-08-24T12:17:54;17.88;;;6.65;;
7179;SDS011;3631;42.152;24.756;2022-08-24T12:20:31;13.48;;;6.53;;
7179;SDS011;3631;42.152;24.756;2022-08-24T12:23:03;18.40;;;6.50;;
7179;SDS011;3631;42.152;24.756;2022-08-24T12:25:34;10.50;;;6.60;;
7179;SDS011;3631;42.152;24.756;2022-08-24T12:28:20;15.13;;;6.50;;
7179;SDS011;3631;42.152;24.756;2022-08-24T12:30:51;13.68;;;6.35;;
7179;SDS011;3631;42.152;24.756;2022-08-24T12:33:20;20.63;;;6.40;;
7179;SDS011;3631;42.152;24.756;2022-08-24T12:35:57;22.48;;;7.00;;
7179;SDS011;3631;42.152;24.756;2022-08-24T12:38:30;17.27;;;6.70;;
7179;SDS011;3631;42.152;24.756;2022-08-24T12:41:02;13.95;;;6.43;;
7179;SDS011;3631;42.152;24.756;2022-08-24T12:43:34;17.05;;;6.85;;
7179;SDS011;3631;42.152;24.756;2022-08-24T12:46:05;15.45;;;6.78;;
7179;SDS011;3631;42.152;24.756;2022-08-24T12:48:33;13.43;;;6.53;;
7179;SDS011;3631;42.152;24.756;2022-08-24T12:51:09;10.13;;;5.88;;
7179;SDS011;3631;42.152;24.756;2022-08-24T12:53:58;14.40;;;5.97;;
7179;SDS011;3631;42.152;24.756;2022-08-24T12:56:50;15.32;;;6.60;;
7179;SDS011;3631;42.152;24.756;2022-08-24T12:59:28;12.68;;;6.03;;
7179;SDS011;3631;42.152;24.756;2022-08-24T13:02:01;17.15;;;5.97;;
7179;SDS011;3631;42.152;24.756;2022-08-24T13:04:34;15.73;;;6.10;;
7179;SDS011;3631;42.152;24.756;2022-08-24T13:07:07;13.18;;;5.85;;
7179;SDS011;3631;42.152;24.756;2022-08-24T13:09:37;17.38;;;6.40;;
7179;SDS011;3631;42.152;24.756;2022-08-24T13:15:19;19.55;;;6.05;;
7179;SDS011;3631;42.152;24.756;2022-08-24T13:17:52;17.38;;;5.90;;
7179;SDS011;3631;42.152;24.756;2022-08-24T13:20:22;13.18;;;5.93;;
7179;SDS011;3631;42.152;24.756;2022-08-24T13:23:02;16.98;;;6.18;;
7179;SDS011;3631;42.152;24.756;2022-08-24T13:25:44;14.00;;;6.25;;
7179;SDS011;3631;42.152;24.756;2022-08-24T13:31:26;10.00;;;5.75;;
7179;SDS011;3631;42.152;24.756;2022-08-24T13:33:59;10.90;;;5.93;;
7179;SDS011;3631;42.152;24.756;2022-08-24T13:36:54;12.32;;;6.13;;
7179;SDS011;3631;42.152;24.756;2022-08-24T13:42:55;15.30;;;6.32;;
7179;SDS011;3631;42.152;24.756;2022-08-24T13:45:36;18.35;;;8.07;;
7179;SDS011;3631;42.152;24.756;2022-08-24T13:48:14;18.00;;;7.18;;
7179;SDS011;3631;42.152;24.756;2022-08-24T13:50:57;14.10;;;6.20;;
7179;SDS011;3631;42.152;24.756;2022-08-24T13:53:56;22.73;;;8.38;;
7179;SDS011;3631;42.152;24.756;2022-08-24T13:59:56;13.32;;;6.00;;
7179;SDS011;3631;42.152;24.756;2022-08-24T14:02:31;14.60;;;6.00;;
7179;SDS011;3631;42.152;24.756;2022-08-24T14:05:11;16.25;;;6.35;;
7179;SDS011;3631;42.152;24.756;2022-08-24T14:07:52;15.25;;;6.28;;
7179;SDS011;3631;42.152;24.756;2022-08-24T14:10:35;13.25;;;5.95;;
7179;SDS011;3631;42.152;24.756;2022-08-24T14:13:25;14.48;;;6.47;;
7179;SDS011;3631;42.152;24.756;2022-08-24T14:16:03;17.88;;;5.35;;
7179;SDS011;3631;42.152;24.756;2022-08-24T14:18:59;14.65;;;5.97;;
7179;SDS011;3631;42.152;24.756;2022-08-24T14:21:36;12.27;;;5.90;;
7179;SDS011;3631;42.152;24.756;2022-08-24T14:24:11;18.30;;;6.47;;
7179;SDS011;3631;42.152;24.756;2022-08-24T14:26:53;12.75;;;6.90;;
7179;SDS011;3631;42.152;24.756;2022-08-24T14:29:34;16.40;;;5.10;;
7179;SDS011;3631;42.152;24.756;2022-08-24T14:43:52;14.68;;;6.07;;
7179;SDS011;3631;42.152;24.756;2022-08-24T14:46:43;8.50;;;5.60;;
7179;SDS011;3631;42.152;24.756;2022-08-24T14:49:19;13.90;;;5.90;;
7179;SDS011;3631;42.152;24.756;2022-08-24T14:52:07;16.67;;;6.13;;
7179;SDS011;3631;42.152;24.756;2022-08-24T14:54:45;17.27;;;5.68;;
7179;SDS011;3631;42.152;24.756;2022-08-24T14:57:27;16.73;;;6.10;;
7179;SDS011;3631;42.152;24.756;2022-08-24T15:00:09;18.30;;;5.78;;
7179;SDS011;3631;42.152;24.756;2022-08-24T15:05:38;20.77;;;5.80;;
7179;SDS011;3631;42.152;24.756;2022-08-24T15:08:09;25.35;;;6.07;;
7179;SDS011;3631;42.152;24.756;2022-08-24T15:10:41;27.00;;;6.22;;
7179;SDS011;3631;42.152;24.756;2022-08-24T15:13:20;24.05;;;7.03;;
7179;SDS011;3631;42.152;24.756;2022-08-24T15:15:54;21.05;;;5.72;;
7179;SDS011;3631;42.152;24.756;2022-08-24T15:18:28;19.15;;;6.07;;
7179;SDS011;3631;42.152;24.756;2022-08-24T15:21:08;24.70;;;6.70;;
7179;SDS011;3631;42.152;24.756;2022-08-24T15:23:47;24.27;;;7.18;;
7179;SDS011;3631;42.152;24.756;2022-08-24T15:26:23;25.83;;;8.50;;
7179;SDS011;3631;42.152;24.756;2022-08-24T15:28:56;26.55;;;6.20;;
7179;SDS011;3631;42.152;24.756;2022-08-24T15:31:24;31.02;;;6.07;;
7179;SDS011;3631;42.152;24.756;2022-08-24T15:33:55;28.52;;;6.78;;
7179;SDS011;3631;42.152;24.756;2022-08-24T15:36:25;19.38;;;6.90;;
7179;SDS011;3631;42.152;24.756;2022-08-24T15:38:54;31.20;;;6.78;;
7179;SDS011;3631;42.152;24.756;2022-08-24T15:41:22;30.42;;;6.03;;
7179;SDS011;3631;42.152;24.756;2022-08-24T15:43:56;16.58;;;5.53;;
7179;SDS011;3631;42.152;24.756;2022-08-24T15:46:24;24.23;;;6.05;;
7179;SDS011;3631;42.152;24.756;2022-08-24T15:48:56;16.88;;;6.35;;
7179;SDS011;3631;42.152;24.756;2022-08-24T15:51:30;20.83;;;7.03;;
7179;SDS011;3631;42.152;24.756;2022-08-24T15:54:11;28.23;;;6.13;;
7179;SDS011;3631;42.152;24.756;2022-08-24T15:56:43;25.98;;;6.35;;
7179;SDS011;3631;42.152;24.756;2022-08-24T17:19:40;18.88;;;6.55;;
7179;SDS011;3631;42.152;24.756;2022-08-24T17:22:07;29.90;;;7.68;;
7179;SDS011;3631;42.152;24.756;2022-08-24T17:24:34;23.27;;;6.75;;
7179;SDS011;3631;42.152;24.756;2022-08-24T17:27:01;21.95;;;7.50;;
7179;SDS011;3631;42.152;24.756;2022-08-24T17:29:29;27.58;;;7.80;;
7179;SDS011;3631;42.152;24.756;2022-08-24T17:31:56;25.75;;;7.07;;
7179;SDS011;3631;42.152;24.756;2022-08-24T17:34:23;19.13;;;6.43;;
7179;SDS011;3631;42.152;24.756;2022-08-24T17:36:53;27.17;;;7.00;;
7179;SDS011;3631;42.152;24.756;2022-08-24T17:39:22;22.20;;;6.97;;